Time;durP1;ratioP1;P1;durP2;ratioP2;P2;SDS_P1;SDS_P2;PMS_P1;PMS_P2;Temp;Humidity;BMP_temperature;BMP_pressure;BME280_temperature;BME280_humidity;BME280_pressure;Samples;Min_cycle;Max_cycle;Signal;HPM_P1;HPM_P2
2022/09/12 08:01:51;;;;;;;22.00;19.73;;;;;;;15.97;92.61;101402.16;5343803;27;20375;-71
2022/09/12 08:04:23;;;;;;;20.67;17.80;;;;;;;15.95;92.03;101385.69;5343779;27;20423;-72
2022/09/12 08:06:54;;;;;;;20.88;18.88;;;;;;;16.00;92.30;101391.19;5342579;27;20019;-72
2022/09/12 08:09:25;;;;;;;19.65;17.73;;;;;;;16.11;92.56;101380.59;5343174;27;20500;-72
2022/09/12 08:11:56;;;;;;;21.27;19.08;;;;;;;16.17;92.36;101386.88;5341604;27;20019;-72
2022/09/12 08:14:37;;;;;;;20.40;18.17;;;;;;;16.28;92.49;101393.91;5342750;27;20051;-72
2022/09/12 08:17:08;;;;;;;21.10;18.58;;;;;;;16.39;92.41;101395.34;5343191;27;20534;-72
2022/09/12 08:19:39;;;;;;;19.67;17.40;;;;;;;16.49;92.64;101399.88;5341709;27;20031;-72
2022/09/12 08:22:11;;;;;;;19.60;17.65;;;;;;;16.54;91.92;101394.16;5343607;27;20031;-72
2022/09/12 08:24:45;;;;;;;20.55;18.50;;;;;;;16.63;91.69;101397.00;5343204;27;20027;-71
2022/09/12 08:27:16;;;;;;;20.92;18.92;;;;;;;16.66;91.46;101404.78;5340857;27;20466;-72
2022/09/12 08:29:47;;;;;;;21.52;18.00;;;;;;;16.76;91.23;101406.50;5342458;27;20040;-72
2022/09/12 08:32:19;;;;;;;19.70;17.80;;;;;;;16.81;90.96;101406.41;5343114;27;20027;-72
2022/09/12 08:34:50;;;;;;;18.08;16.23;;;;;;;16.93;91.02;101409.47;5342107;27;20115;-72
2022/09/12 08:37:22;;;;;;;31.40;18.63;;;;;;;16.98;90.71;101411.31;5343373;27;20043;-71
2022/09/12 08:39:53;;;;;;;18.17;15.57;;;;;;;17.05;90.60;101408.84;5340290;27;20039;-71
2022/09/12 08:43:01;;;;;;;20.23;16.77;;;;;;;17.20;90.53;101411.25;5340232;27;20032;-72
2022/09/12 08:45:42;;;;;;;20.50;17.67;;;;;;;17.23;90.36;101405.03;5342641;27;20057;-71
2022/09/12 08:48:16;;;;;;;19.35;17.42;;;;;;;17.30;89.92;101402.56;5341730;27;20053;-73
2022/09/12 08:50:51;;;;;;;17.95;16.10;;;;;;;17.39;89.64;101403.47;5341620;27;20054;-73
2022/09/12 08:53:25;;;;;;;18.33;16.58;;;;;;;17.42;89.50;101401.16;5340826;27;20108;-71
2022/09/12 08:55:58;;;;;;;17.10;14.93;;;;;;;17.55;89.25;101400.22;5341370;27;20487;-71
2022/09/12 08:58:38;;;;;;;17.80;14.68;;;;;;;17.64;88.84;101387.09;5342070;27;20032;-71
2022/09/12 09:01:23;;;;;;;15.13;13.60;;;;;;;17.72;88.08;101389.09;5358261;27;20045;-73
2022/09/12 09:04:26;;;;;;;16.73;15.05;;;;;;;17.83;87.65;101386.00;5363512;27;20470;-74
2022/09/12 09:07:28;;;;;;;19.63;15.27;;;;;;;17.92;87.93;101387.69;5362676;27;20030;-74
2022/09/12 09:10:31;;;;;;;16.13;14.43;;;;;;;18.12;87.19;101385.41;5359497;27;20019;-75
2022/09/12 09:14:46;;;;;;;16.45;14.60;;;;;;;18.27;86.41;101386.91;5347449;27;20035;-73
2022/09/12 09:16:29;;;;;;;14.50;13.20;;;;;;;18.27;84.98;101378.50;5343820;27;20088;-72
2022/09/12 09:19:04;;;;;;;13.77;12.13;;;;;;;18.30;83.90;101375.84;5349236;27;20489;-72
2022/09/12 09:21:41;;;;;;;14.18;12.68;;;;;;;18.36;84.41;101368.91;5348400;27;20164;-71
2022/09/12 09:24:17;;;;;;;13.02;11.55;;;;;;;18.38;83.14;101377.00;5347028;27;20177;-71
2022/09/12 09:26:56;;;;;;;12.57;11.38;;;;;;;18.57;82.43;101371.88;5348628;27;20023;-71
2022/09/12 09:29:44;;;;;;;12.77;10.80;;;;;;;18.64;82.03;101368.59;5348813;27;20491;-72
2022/09/12 09:32:25;;;;;;;13.50;10.82;;;;;;;18.69;80.87;101372.03;5348268;27;20023;-71
2022/09/12 09:34:57;;;;;;;11.60;10.52;;;;;;;18.76;80.10;101371.56;5336215;27;20027;-73
2022/09/12 09:37:36;;;;;;;11.50;10.30;;;;;;;18.85;79.41;101368.75;5346827;27;20030;-71
2022/09/12 09:40:26;;;;;;;12.95;11.75;;;;;;;18.89;81.19;101366.91;5346134;27;20027;-71
2022/09/12 09:43:23;;;;;;;12.07;10.40;;;;;;;18.97;79.65;101368.03;5348210;27;20031;-72
2022/09/12 09:45:56;;;;;;;9.15;8.25;;;;;;;19.23;77.37;101356.75;5348175;27;20469;-71
2022/09/12 09:48:33;;;;;;;11.60;10.50;;;;;;;19.21;77.90;101354.25;5348493;27;20042;-71
2022/09/12 09:51:06;;;;;;;10.65;9.60;;;;;;;19.29;77.12;101344.97;5346800;27;20027;-72
2022/09/12 09:54:00;;;;;;;15.23;12.85;;;;;;;19.40;75.84;101348.22;5347722;27;20500;-71
2022/09/12 09:56:36;;;;;;;11.73;10.60;;;;;;;19.44;75.42;101346.41;5348611;27;20397;-72
2022/09/12 09:59:28;;;;;;;10.57;9.65;;;;;;;19.63;75.74;101339.50;5346661;27;20054;-72
2022/09/12 10:02:02;;;;;;;12.75;10.32;;;;;;;19.52;74.77;101341.91;5348134;27;20031;-72
2022/09/12 10:04:38;;;;;;;10.35;8.73;;;;;;;19.64;74.75;101332.75;5348393;27;20027;-72
2022/09/12 10:07:18;;;;;;;8.75;7.95;;;;;;;19.67;73.69;101332.91;5347319;27;20470;-72
2022/09/12 10:10:15;;;;;;;10.55;9.45;;;;;;;19.69;73.88;101329.78;5346456;27;20030;-72
2022/09/12 10:12:46;;;;;;;9.10;8.10;;;;;;;19.70;72.56;101323.78;5346074;27;20084;-72
2022/09/12 10:15:18;;;;;;;7.93;7.22;;;;;;;19.84;72.30;101326.38;5346262;27;20435;-72
2022/09/12 10:17:50;;;;;;;8.75;7.78;;;;;;;19.95;72.17;101321.97;5347702;27;20027;-72
2022/09/12 10:20:37;;;;;;;9.00;7.07;;;;;;;20.05;71.18;101314.28;5334018;27;20085;-72
2022/09/12 10:23:36;;;;;;;8.25;7.45;;;;;;;20.08;69.72;101308.78;5343884;27;20031;-72
2022/09/12 10:26:14;;;;;;;8.43;7.63;;;;;;;20.08;69.21;101308.78;5347111;27;20027;-72
2022/09/12 10:28:52;;;;;;;8.90;7.05;;;;;;;20.27;69.91;101301.84;5347091;27;20023;-72
2022/09/12 10:31:34;;;;;;;7.88;6.57;;;;;;;20.19;69.96;101300.75;5345296;27;20019;-73
2022/09/12 10:34:21;;;;;;;8.43;7.53;;;;;;;20.37;71.18;101299.41;5346309;27;20110;-73
2022/09/12 10:36:59;;;;;;;8.60;7.75;;;;;;;20.26;70.91;101303.84;5347193;27;20031;-74
2022/09/12 10:39:33;;;;;;;7.38;6.78;;;;;;;20.40;70.66;101301.56;5347153;27;20030;-74
2022/09/12 10:42:07;;;;;;;6.72;6.03;;;;;;;20.52;68.14;101288.69;5345689;27;20027;-71
2022/09/12 10:44:52;;;;;;;5.82;5.10;;;;;;;20.67;66.65;101292.88;5347071;27;20034;-72
2022/09/12 10:47:29;;;;;;;5.97;5.38;;;;;;;20.67;65.21;101288.06;5346696;27;20415;-74
2022/09/12 10:50:35;;;;;;;6.28;5.50;;;;;;;20.75;66.38;101277.88;5346001;27;20023;-72
2022/09/12 10:53:25;;;;;;;9.23;5.45;;;;;;;20.91;66.90;101278.00;5347084;27;20035;-72
2022/09/12 10:56:08;;;;;;;6.65;5.95;;;;;;;20.95;66.75;101264.88;5346188;27;20019;-71
2022/09/12 10:59:04;;;;;;;6.35;5.75;;;;;;;20.97;65.83;101271.00;5346132;27;20031;-72
2022/09/12 11:01:36;;;;;;;6.13;5.63;;;;;;;21.01;64.93;101252.19;5346256;27;20054;-72
2022/09/12 11:04:28;;;;;;;7.30;5.15;;;;;;;21.15;64.88;101261.13;5347277;27;20423;-76
2022/09/12 11:07:24;;;;;;;4.68;4.28;;;;;;;21.19;62.63;101259.28;5346608;27;20027;-71
2022/09/12 11:10:20;;;;;;;4.93;4.35;;;;;;;21.20;63.25;101254.44;5346242;27;20510;-74
2022/09/12 11:13:24;;;;;;;5.03;4.63;;;;;;;21.31;63.05;101251.97;5325566;28;20442;-74
2022/09/12 11:16:26;;;;;;;4.63;4.10;;;;;;;21.38;62.54;101253.06;5345941;27;20035;-74
2022/09/12 11:19:16;;;;;;;3.92;3.63;;;;;;;21.44;61.48;101251.63;5345315;27;20371;-71
2022/09/12 11:22:13;;;;;;;5.18;4.68;;;;;;;21.55;62.85;101246.34;5325631;28;20037;-71
2022/09/12 11:25:02;;;;;;;5.40;4.90;;;;;;;21.57;61.92;101246.78;5343587;27;20051;-71
2022/09/12 11:28:01;;;;;;;7.63;5.15;;;;;;;21.68;62.51;101245.16;5346809;27;20030;-71
2022/09/12 11:30:45;;;;;;;3.20;2.78;;;;;;;21.76;58.66;101239.72;5343671;27;20089;-80
2022/09/12 11:33:25;;;;;;;3.55;3.03;;;;;;;21.80;58.87;101241.47;5336101;27;20027;-74
2022/09/12 11:36:01;;;;;;;3.83;3.45;;;;;;;21.90;58.61;101243.78;5340973;27;20067;-74
2022/09/12 11:39:15;;;;;;;4.03;3.40;;;;;;;21.97;59.43;101229.06;5344834;27;20433;-73
2022/09/12 11:41:51;;;;;;;3.35;2.92;;;;;;;22.15;56.38;101238.06;5295950;27;20047;-73
2022/09/12 11:44:35;;;;;;;4.40;2.80;;;;;;;22.08;55.95;101241.47;5344401;27;20038;-74
2022/09/12 11:47:10;;;;;;;3.13;2.83;;;;;;;22.11;55.93;101237.13;5333238;27;20059;-74
2022/09/12 11:49:52;;;;;;;4.95;2.75;;;;;;;22.23;56.03;101233.47;5343741;27;20027;-75
2022/09/12 11:52:27;;;;;;;3.92;2.55;;;;;;;22.28;55.42;101236.84;5345428;27;20389;-74
2022/09/12 11:55:16;;;;;;;2.78;2.53;;;;;;;22.29;55.55;101247.00;5345901;27;20444;-75
2022/09/12 11:57:56;;;;;;;5.53;3.38;;;;;;;22.52;55.60;101241.56;5345435;27;20054;-74
2022/09/12 12:00:39;;;;;;;3.47;3.17;;;;;;;22.56;54.67;101241.66;5345810;28;20054;-74
2022/09/12 12:03:25;;;;;;;3.47;3.05;;;;;;;22.56;53.83;101239.66;5346333;27;20043;-74
2022/09/12 12:06:05;;;;;;;3.00;2.80;;;;;;;22.66;53.83;101226.19;5345227;28;20419;-75
2022/09/12 12:08:38;;;;;;;3.85;2.90;;;;;;;22.63;52.33;101227.72;5345659;28;20019;-75
2022/09/12 12:11:13;;;;;;;4.70;3.47;;;;;;;22.75;53.10;101224.81;5346213;27;20043;-73
2022/09/12 12:13:50;;;;;;;2.70;2.50;;;;;;;22.79;51.77;101228.56;5344515;27;20046;-75
2022/09/12 12:16:27;;;;;;;3.28;2.97;;;;;;;22.86;51.94;101229.94;5345942;28;20046;-75
2022/09/12 12:19:31;;;;;;;3.83;2.95;;;;;;;22.89;51.85;101226.38;5344822;28;20030;-73
2022/09/12 12:22:23;;;;;;;4.93;2.85;;;;;;;22.94;51.94;101231.75;5341638;27;20506;-74
2022/09/12 12:25:05;;;;;;;3.45;3.05;;;;;;;22.96;51.94;101227.38;5346006;28;20466;-73
2022/09/12 12:27:55;;;;;;;3.15;2.83;;;;;;;23.04;52.47;101222.75;5345352;27;20428;-76
2022/09/12 12:30:29;;;;;;;4.65;3.25;;;;;;;23.03;52.77;101229.59;5346108;28;20051;-75
2022/09/12 12:33:09;;;;;;;7.18;3.50;;;;;;;23.16;53.13;101221.81;5344474;27;20027;-75
2022/09/12 12:35:45;;;;;;;3.22;2.88;;;;;;;23.15;52.21;101221.00;5346081;27;20030;-74
2022/09/12 12:38:29;;;;;;;4.25;2.70;;;;;;;23.23;51.78;101219.16;5345750;28;20445;-74
2022/09/12 12:41:15;;;;;;;3.75;2.95;;;;;;;23.30;50.79;101213.69;5343936;28;20043;-74
2022/09/12 12:43:51;;;;;;;4.38;2.88;;;;;;;23.22;50.86;101214.72;5345725;27;20023;-75
2022/09/12 12:46:26;;;;;;;4.47;2.78;;;;;;;23.32;51.04;101211.31;5346005;27;20035;-74
2022/09/12 12:49:09;;;;;;;3.38;2.88;;;;;;;23.50;50.65;101210.91;5348679;27;20023;-74
2022/09/12 12:52:01;;;;;;;5.57;2.97;;;;;;;23.56;50.03;101198.09;5348966;27;20031;-75
2022/09/12 12:54:44;;;;;;;3.47;3.05;;;;;;;23.60;50.29;101193.34;5342853;27;20386;-75
2022/09/12 12:57:39;;;;;;;5.05;2.90;;;;;;;23.65;49.53;101191.03;5349039;27;20394;-75
2022/09/12 13:00:30;;;;;;;4.63;2.85;;;;;;;23.76;48.64;101190.50;5348006;27;20081;-73
2022/09/12 13:03:07;;;;;;;2.88;2.60;;;;;;;23.71;48.56;101188.72;5337165;27;20032;-74
2022/09/12 13:05:39;;;;;;;4.50;2.55;;;;;;;23.78;48.88;101180.44;5349478;27;20128;-73
2022/09/12 13:08:16;;;;;;;3.28;2.47;;;;;;;23.85;48.74;101186.25;5348130;27;20031;-74
2022/09/12 13:10:50;;;;;;;3.58;2.50;;;;;;;24.02;47.90;101181.31;5349903;27;20035;-74
2022/09/12 13:13:30;;;;;;;2.55;2.35;;;;;;;24.19;46.75;101180.84;5347195;27;20022;-73
2022/09/12 13:16:02;;;;;;;3.58;2.78;;;;;;;24.14;47.11;101175.50;5337719;27;20058;-75
2022/09/12 13:18:42;;;;;;;2.72;2.53;;;;;;;24.27;47.27;101162.78;5349399;27;20039;-74
2022/09/12 13:21:15;;;;;;;6.40;2.40;;;;;;;24.14;46.60;101158.50;5348474;27;20023;-75
2022/09/12 13:24:11;;;;;;;4.95;2.85;;;;;;;24.25;47.76;101153.84;5345740;27;20027;-75
2022/09/12 13:26:46;;;;;;;6.07;2.80;;;;;;;24.35;47.58;101151.59;5349263;27;20035;-74
2022/09/12 13:29:22;;;;;;;3.05;2.53;;;;;;;24.39;46.94;101146.78;5346779;27;20025;-72
2022/09/12 13:32:01;;;;;;;3.95;3.60;;;;;;;24.60;47.47;101158.56;5348039;27;20034;-75
2022/09/12 13:35:06;;;;;;;5.60;2.90;;;;;;;24.65;45.70;101155.41;5348204;27;20102;-75
2022/09/12 13:37:46;;;;;;;6.70;3.83;;;;;;;24.55;45.69;101156.03;5347759;27;20500;-74
2022/09/12 13:40:55;;;;;;;6.15;5.30;;;;;;;24.64;45.72;101153.75;5347368;27;20102;-74
2022/09/12 13:43:46;;;;;;;2.35;2.15;;;;;;;24.64;45.50;101156.59;5347670;27;20064;-71
2022/09/12 13:46:29;;;;;;;4.68;2.40;;;;;;;24.64;44.39;101153.75;5348515;27;20024;-70
2022/09/12 13:49:10;;;;;;;6.90;5.85;;;;;;;24.64;44.54;101150.91;5347370;27;20012;-71
2022/09/12 13:51:48;;;;;;;7.45;6.85;;;;;;;24.65;45.37;101148.94;5347529;27;20083;-73
2022/09/12 13:54:19;;;;;;;2.92;2.63;;;;;;;24.61;45.11;101148.84;5347965;27;20060;-73
2022/09/12 13:56:51;;;;;;;4.43;2.30;;;;;;;24.66;44.99;101137.19;5348397;27;20019;-73
2022/09/12 13:59:22;;;;;;;4.85;2.70;;;;;;;24.65;45.78;101137.59;5346884;27;20034;-73
2022/09/12 14:01:56;;;;;;;2.78;2.38;;;;;;;24.72;45.57;101138.53;5348243;27;20111;-73
2022/09/12 14:07:24;;;;;;;3.60;2.13;;;;;;;24.80;45.47;101124.44;5348245;27;20035;-75
2022/09/12 14:10:06;;;;;;;3.22;2.60;;;;;;;24.77;45.21;101119.53;5349609;27;20322;-75
2022/09/12 14:12:40;;;;;;;4.18;2.35;;;;;;;24.82;44.90;101114.34;5361705;27;20521;-75
2022/09/12 14:15:24;;;;;;;3.95;2.45;;;;;;;24.83;45.50;101101.00;5336289;27;20039;-74
2022/09/12 14:18:00;;;;;;;2.75;2.40;;;;;;;24.78;45.03;101105.00;5348509;27;20053;-75
2022/09/12 14:20:36;;;;;;;2.95;2.42;;;;;;;24.69;45.15;101110.09;5346976;27;20499;-75
2022/09/12 14:23:29;;;;;;;2.88;2.38;;;;;;;24.64;42.82;101114.06;5349380;27;20106;-74
2022/09/12 14:26:04;;;;;;;4.93;1.98;;;;;;;24.47;42.62;101109.75;5346638;27;20436;-74
2022/09/12 14:28:37;;;;;;;2.80;2.40;;;;;;;24.47;43.74;101108.94;5347963;27;20125;-75
2022/09/12 14:31:23;;;;;;;14.27;13.00;;;;;;;24.41;44.83;101097.03;5347508;27;20035;-77
2022/09/12 14:33:55;;;;;;;;;;;;;;;24.55;45.12;101096.50;5346885;27;20027;-78
2022/09/12 14:36:34;;;;;;;3.05;2.10;;;;;;;24.46;45.18;101095.94;5347769;27;19979;-78
2022/09/12 14:39:17;;;;;;;3.92;2.42;;;;;;;24.53;45.70;101081.88;5346272;27;20022;-76
2022/09/12 14:41:50;;;;;;;3.25;2.20;;;;;;;24.50;45.71;101076.97;5346166;27;20448;-70
2022/09/12 14:44:24;;;;;;;3.58;2.30;;;;;;;24.45;45.19;101077.31;5347701;27;20021;-75
2022/09/12 14:47:09;;;;;;;4.80;2.40;;;;;;;24.51;45.47;101072.94;5346444;27;20027;-75
2022/09/12 14:49:43;;;;;;;3.60;2.20;;;;;;;24.50;45.37;101074.16;5346989;27;20027;-75
2022/09/12 14:52:27;;;;;;;2.40;2.20;;;;;;;24.52;45.37;101075.41;5346811;27;20023;-76
2022/09/12 14:55:14;;;;;;;6.22;4.18;;;;;;;24.53;45.49;101084.72;5340843;27;20023;-76
2022/09/12 14:57:46;;;;;;;2.50;2.30;;;;;;;24.55;44.90;101076.66;5347287;27;20028;-75
2022/09/12 15:00:21;;;;;;;3.85;2.30;;;;;;;24.44;45.29;101079.28;5345838;27;20039;-72
2022/09/12 15:02:53;;;;;;;3.73;2.23;;;;;;;24.48;44.67;101074.50;5344382;27;20024;-73
2022/09/12 15:05:25;;;;;;;4.40;2.40;;;;;;;24.38;44.29;101069.44;5346763;27;20026;-75
2022/09/12 15:07:59;;;;;;;3.20;1.83;;;;;;;24.29;43.25;101078.22;5346337;27;20058;-76
2022/09/12 15:10:34;;;;;;;3.03;2.20;;;;;;;24.34;44.45;101070.59;5345874;27;20054;-72
2022/09/12 15:13:08;;;;;;;9.15;3.63;;;;;;;24.34;44.35;101070.59;5346589;27;20383;-75
2022/09/12 15:15:45;;;;;;;11.07;10.15;;;;;;;24.41;45.39;101059.38;5346137;27;20038;-77
2022/09/12 15:18:18;;;;;;;5.55;3.30;;;;;;;24.30;45.07;101053.53;5344858;27;20031;-76
2022/09/12 15:20:53;;;;;;;3.72;3.28;;;;;;;24.34;45.29;101054.41;5346595;27;20369;-76
2022/09/12 15:23:37;;;;;;;22.67;20.67;;;;;;;24.38;45.58;101051.63;5346285;27;20030;-75
2022/09/12 15:26:11;;;;;;;4.25;2.40;;;;;;;24.33;45.87;101057.63;5333417;27;20108;-77
2022/09/12 15:28:43;;;;;;;3.03;2.50;;;;;;;24.29;45.49;101044.22;5344835;27;20111;-76
2022/09/12 15:31:26;;;;;;;4.20;2.20;;;;;;;24.24;44.66;101044.53;5346960;27;20118;-76
2022/09/12 15:33:59;;;;;;;3.60;2.92;;;;;;;24.14;44.77;101044.34;5347038;27;20023;-75
2022/09/12 15:36:31;;;;;;;3.47;2.45;;;;;;;24.24;45.58;101038.88;5345045;27;20023;-76
2022/09/12 15:39:02;;;;;;;2.33;2.13;;;;;;;24.28;45.88;101045.41;5346066;27;20023;-76
2022/09/12 15:41:36;;;;;;;6.82;6.10;;;;;;;24.24;45.83;101043.72;5346566;27;20110;-76
2022/09/12 15:44:11;;;;;;;6.05;5.45;;;;;;;24.19;45.37;101050.50;5346090;27;20477;-76
2022/09/12 15:46:42;;;;;;;10.68;9.73;;;;;;;24.33;45.28;101040.63;5346283;27;20373;-76
2022/09/12 15:49:13;;;;;;;2.65;2.40;;;;;;;24.17;45.00;101043.59;5346538;27;20033;-76
2022/09/12 15:51:45;;;;;;;5.35;2.80;;;;;;;24.16;45.39;101034.28;5329991;27;20085;-75
2022/09/12 15:54:18;;;;;;;2.70;2.20;;;;;;;24.28;45.65;101044.59;5325356;28;20019;-76
2022/09/12 15:56:49;;;;;;;3.00;2.30;;;;;;;24.31;45.36;101043.81;5344101;27;20587;-76
2022/09/12 15:59:20;;;;;;;2.85;2.28;;;;;;;24.36;45.46;101039.84;5345855;27;20110;-69
2022/09/12 16:01:52;;;;;;;4.85;2.03;;;;;;;24.53;45.51;101030.84;5337737;27;20034;-69
2022/09/12 16:04:26;;;;;;;5.95;2.38;;;;;;;24.44;46.36;101031.09;5341505;27;20149;-70
2022/09/12 16:06:58;;;;;;;2.97;2.13;;;;;;;24.36;45.01;101023.66;5346254;28;20104;-69
2022/09/12 16:09:29;;;;;;;1.85;1.75;;;;;;;24.42;44.47;101015.69;5346220;27;20444;-70
2022/09/12 16:12:00;;;;;;;3.22;2.45;;;;;;;24.45;44.68;101014.94;5343689;27;20019;-70
2022/09/12 16:14:32;;;;;;;2.88;1.92;;;;;;;24.44;45.13;101007.59;5345372;28;20110;-70
2022/09/12 16:17:23;;;;;;;3.80;2.00;;;;;;;24.51;44.81;101013.41;5346006;27;20020;-70
2022/09/12 16:19:54;;;;;;;3.45;2.25;;;;;;;24.47;44.82;101001.22;5344254;28;20402;-70
2022/09/12 16:22:26;;;;;;;2.00;1.90;;;;;;;24.40;45.18;101009.56;5348405;27;20137;-70
2022/09/12 16:24:57;;;;;;;2.42;1.90;;;;;;;24.48;44.97;101014.19;5349616;27;20023;-70
2022/09/12 16:27:29;;;;;;;3.80;1.92;;;;;;;24.30;45.69;101003.34;5350277;27;20054;-70
2022/09/12 16:30:00;;;;;;;2.33;1.90;;;;;;;24.27;45.40;101003.28;5348916;27;20381;-70
2022/09/12 16:32:32;;;;;;;4.65;2.42;;;;;;;24.38;45.25;101009.13;5348860;27;20519;-70
2022/09/12 16:35:04;;;;;;;3.60;2.50;;;;;;;24.35;45.24;101010.69;5349902;27;20463;-70
2022/09/12 16:37:35;;;;;;;3.58;2.40;;;;;;;24.21;45.68;101014.13;5349644;27;20023;-69
2022/09/12 16:40:08;;;;;;;3.75;2.22;;;;;;;24.09;45.22;101000.16;5348936;27;20315;-69
2022/09/12 16:42:42;;;;;;;3.35;2.20;;;;;;;23.99;45.35;101003.63;5349904;27;20083;-69
2022/09/12 16:45:13;;;;;;;3.03;2.30;;;;;;;23.91;45.49;101007.53;5349742;27;20456;-69
2022/09/12 16:47:44;;;;;;;7.18;3.10;;;;;;;23.83;46.35;100996.06;5348696;27;20098;-69
2022/09/12 16:50:16;;;;;;;5.32;2.65;;;;;;;23.81;46.75;101000.47;5349259;27;20072;-69
2022/09/12 16:52:47;;;;;;;6.65;2.60;;;;;;;23.75;46.83;100997.13;5349826;27;20362;-69
2022/09/12 16:55:18;;;;;;;5.50;3.10;;;;;;;23.72;46.97;100983.69;5348590;27;20115;-70
2022/09/12 16:57:50;;;;;;;7.70;3.50;;;;;;;23.66;46.87;100990.84;5347185;27;20023;-70
2022/09/12 17:00:21;;;;;;;7.70;3.47;;;;;;;23.58;46.85;100983.44;5348046;27;20055;-70
2022/09/12 17:02:52;;;;;;;4.50;2.50;;;;;;;23.58;47.07;100977.75;5339764;27;20315;-70
2022/09/12 17:05:28;;;;;;;14.00;11.02;;;;;;;23.55;47.25;100984.19;5345026;27;20466;-70
2022/09/12 17:07:59;;;;;;;6.35;2.67;;;;;;;23.53;47.09;100987.38;5348517;27;20414;-70
2022/09/12 17:10:31;;;;;;;5.82;2.90;;;;;;;23.47;47.14;100973.88;5348996;27;20087;-70
2022/09/12 17:13:08;;;;;;;4.68;2.58;;;;;;;23.39;47.97;100968.13;5348555;27;20023;-70
2022/09/12 17:15:40;;;;;;;6.78;2.95;;;;;;;23.35;47.31;100958.72;5348347;27;20034;-70
2022/09/12 17:18:11;;;;;;;6.50;2.78;;;;;;;23.30;47.73;100961.84;5348818;27;20397;-70
2022/09/12 17:20:42;;;;;;;5.85;2.45;;;;;;;23.22;48.33;100960.09;5348203;27;20384;-70
2022/09/12 17:23:14;;;;;;;5.22;2.55;;;;;;;23.17;49.46;100949.06;5347777;27;20063;-70
2022/09/12 17:25:50;;;;;;;5.90;2.80;;;;;;;23.14;49.81;100932.84;5349204;27;20376;-69
2022/09/12 17:28:22;;;;;;;8.90;3.70;;;;;;;23.08;49.42;100929.47;5347401;27;20019;-69
2022/09/12 17:30:58;;;;;;;5.72;2.90;;;;;;;23.04;49.59;100927.78;5348327;27;20028;-70
